sensor_id;sensor_type;location;lat;lon;timestamp;pressure;altitude;pressure_sealevel;temperature;humidity
75745;BME280;64359;51.366;-0.222;2022-11-02T00:00:14;100832.64;;;21.12;62.45
75745;BME280;64359;51.366;-0.222;2022-11-02T00:01:23;100835.90;;;21.12;62.42
75745;BME280;64359;51.366;-0.222;2022-11-02T00:02:28;100834.18;;;21.08;62.47
75745;BME280;64359;51.366;-0.222;2022-11-02T00:03:32;100839.51;;;21.10;62.44
75745;BME280;64359;51.366;-0.222;2022-11-02T00:04:37;100838.75;;;21.09;62.40
75745;BME280;64359;51.366;-0.222;2022-11-02T00:05:41;100844.44;;;21.09;62.44
75745;BME280;64359;51.366;-0.222;2022-11-02T00:06:46;100849.52;;;21.08;62.44
75745;BME280;64359;51.366;-0.222;2022-11-02T00:07:51;100846.73;;;21.07;62.50
75745;BME280;64359;51.366;-0.222;2022-11-02T00:08:55;100848.29;;;21.07;62.38
75745;BME280;64359;51.366;-0.222;2022-11-02T00:10:00;100850.89;;;21.06;62.42
75745;BME280;64359;51.366;-0.222;2022-11-02T00:11:04;100856.66;;;21.06;62.46
75745;BME280;64359;51.366;-0.222;2022-11-02T00:12:09;100859.45;;;21.05;62.47
75745;BME280;64359;51.366;-0.222;2022-11-02T00:13:13;100858.69;;;21.06;62.69
75745;BME280;64359;51.366;-0.222;2022-11-02T00:14:18;100860.95;;;21.06;62.72
75745;BME280;64359;51.366;-0.222;2022-11-02T00:15:23;100860.50;;;21.07;62.83
75745;BME280;64359;51.366;-0.222;2022-11-02T00:16:28;100862.39;;;21.08;62.79
75745;BME280;64359;51.366;-0.222;2022-11-02T00:17:33;100865.98;;;21.08;62.81
75745;BME280;64359;51.366;-0.222;2022-11-02T00:18:39;100868.73;;;21.08;62.71
75745;BME280;64359;51.366;-0.222;2022-11-02T00:19:44;100873.06;;;21.08;62.57
75745;BME280;64359;51.366;-0.222;2022-11-02T00:20:48;100873.98;;;21.08;62.51
75745;BME280;64359;51.366;-0.222;2022-11-02T00:21:53;100880.51;;;21.07;62.47
75745;BME280;64359;51.366;-0.222;2022-11-02T00:23:02;100883.77;;;21.07;62.47
75745;BME280;64359;51.366;-0.222;2022-11-02T00:24:09;100890.97;;;21.07;62.36
75745;BME280;64359;51.366;-0.222;2022-11-02T00:25:15;100895.35;;;21.07;62.30
75745;BME280;64359;51.366;-0.222;2022-11-02T00:26:21;100898.44;;;21.07;62.29
75745;BME280;64359;51.366;-0.222;2022-11-02T00:27:26;100901.45;;;21.06;62.18
75745;BME280;64359;51.366;-0.222;2022-11-02T00:28:31;100905.92;;;21.06;62.16
75745;BME280;64359;51.366;-0.222;2022-11-02T00:29:36;100903.23;;;21.03;62.11
75745;BME280;64359;51.366;-0.222;2022-11-02T00:30:40;100913.06;;;21.04;62.13
75745;BME280;64359;51.366;-0.222;2022-11-02T00:31:45;100915.36;;;21.04;62.12
75745;BME280;64359;51.366;-0.222;2022-11-02T00:32:50;100919.48;;;21.03;62.11
75745;BME280;64359;51.366;-0.222;2022-11-02T00:33:55;100916.80;;;21.03;62.00
75745;BME280;64359;51.366;-0.222;2022-11-02T00:34:59;100919.63;;;21.02;62.04
75745;BME280;64359;51.366;-0.222;2022-11-02T00:36:04;100924.70;;;21.02;61.97
75745;BME280;64359;51.366;-0.222;2022-11-02T00:37:09;100930.44;;;21.01;61.97
75745;BME280;64359;51.366;-0.222;2022-11-02T00:38:13;100931.27;;;21.00;61.95
75745;BME280;64359;51.366;-0.222;2022-11-02T00:39:18;100936.38;;;20.99;61.89
75745;BME280;64359;51.366;-0.222;2022-11-02T00:40:22;100934.16;;;20.98;61.87
75745;BME280;64359;51.366;-0.222;2022-11-02T00:41:27;100948.72;;;20.97;61.90
75745;BME280;64359;51.366;-0.222;2022-11-02T00:42:32;100944.27;;;20.95;61.92
75745;BME280;64359;51.366;-0.222;2022-11-02T00:43:37;100944.34;;;20.93;61.79
75745;BME280;64359;51.366;-0.222;2022-11-02T00:44:42;100948.92;;;20.91;61.81
75745;BME280;64359;51.366;-0.222;2022-11-02T00:45:47;100951.02;;;20.89;61.80
75745;BME280;64359;51.366;-0.222;2022-11-02T00:46:51;100951.63;;;20.88;61.75
75745;BME280;64359;51.366;-0.222;2022-11-02T00:47:56;100952.23;;;20.86;61.79
75745;BME280;64359;51.366;-0.222;2022-11-02T00:49:00;100958.45;;;20.84;61.90
75745;BME280;64359;51.366;-0.222;2022-11-02T00:50:06;100962.42;;;20.82;61.84
75745;BME280;64359;51.366;-0.222;2022-11-02T00:51:11;100959.73;;;20.81;61.92
75745;BME280;64359;51.366;-0.222;2022-11-02T00:52:15;100968.08;;;20.79;61.92
75745;BME280;64359;51.366;-0.222;2022-11-02T00:53:20;100974.48;;;20.78;61.91
75745;BME280;64359;51.366;-0.222;2022-11-02T00:54:24;100975.67;;;20.77;61.91
75745;BME280;64359;51.366;-0.222;2022-11-02T00:55:29;100979.33;;;20.77;61.85
75745;BME280;64359;51.366;-0.222;2022-11-02T00:56:33;100982.83;;;20.76;61.93
75745;BME280;64359;51.366;-0.222;2022-11-02T00:57:38;100988.35;;;20.75;61.91
75745;BME280;64359;51.366;-0.222;2022-11-02T00:58:43;100991.38;;;20.74;61.96
75745;BME280;64359;51.366;-0.222;2022-11-02T00:59:47;100996.59;;;20.74;62.03
75745;BME280;64359;51.366;-0.222;2022-11-02T01:00:52;100999.81;;;20.73;62.02
75745;BME280;64359;51.366;-0.222;2022-11-02T01:01:58;101002.19;;;20.73;62.04
75745;BME280;64359;51.366;-0.222;2022-11-02T01:03:02;101001.27;;;20.73;62.17
75745;BME280;64359;51.366;-0.222;2022-11-02T01:04:07;101007.28;;;20.74;62.32
75745;BME280;64359;51.366;-0.222;2022-11-02T01:05:11;101003.48;;;20.74;62.45
75745;BME280;64359;51.366;-0.222;2022-11-02T01:06:16;101006.86;;;20.76;62.55
75745;BME280;64359;51.366;-0.222;2022-11-02T01:07:21;101009.48;;;20.76;62.48
75745;BME280;64359;51.366;-0.222;2022-11-02T01:08:25;101016.09;;;20.77;62.45
75745;BME280;64359;51.366;-0.222;2022-11-02T01:09:30;101016.22;;;20.78;62.32
75745;BME280;64359;51.366;-0.222;2022-11-02T01:10:35;101017.44;;;20.78;62.25
75745;BME280;64359;51.366;-0.222;2022-11-02T01:11:40;101022.23;;;20.79;62.18
75745;BME280;64359;51.366;-0.222;2022-11-02T01:12:44;101024.85;;;20.78;62.17
75745;BME280;64359;51.366;-0.222;2022-11-02T01:13:50;101027.14;;;20.78;62.09
75745;BME280;64359;51.366;-0.222;2022-11-02T01:14:54;101029.98;;;20.79;62.22
75745;BME280;64359;51.366;-0.222;2022-11-02T01:15:59;101033.27;;;20.78;62.16
75745;BME280;64359;51.366;-0.222;2022-11-02T01:17:05;101032.77;;;20.78;62.05
75745;BME280;64359;51.366;-0.222;2022-11-02T01:18:10;101035.84;;;20.78;61.98
75745;BME280;64359;51.366;-0.222;2022-11-02T01:19:14;101033.80;;;20.75;61.93
75745;BME280;64359;51.366;-0.222;2022-11-02T01:20:19;101041.52;;;20.77;61.96
75745;BME280;64359;51.366;-0.222;2022-11-02T01:21:24;101045.33;;;20.77;61.97
75745;BME280;64359;51.366;-0.222;2022-11-02T01:22:28;101046.73;;;20.76;61.95
75745;BME280;64359;51.366;-0.222;2022-11-02T01:23:34;101044.82;;;20.77;61.88
75745;BME280;64359;51.366;-0.222;2022-11-02T01:24:38;101051.77;;;20.76;61.93
75745;BME280;64359;51.366;-0.222;2022-11-02T01:25:46;101050.63;;;20.75;61.92
75745;BME280;64359;51.366;-0.222;2022-11-02T01:26:51;101050.45;;;20.75;61.94
75745;BME280;64359;51.366;-0.222;2022-11-02T01:27:56;101054.52;;;20.74;61.90
75745;BME280;64359;51.366;-0.222;2022-11-02T01:29:00;101053.98;;;20.74;61.88
75745;BME280;64359;51.366;-0.222;2022-11-02T01:30:06;101056.13;;;20.73;61.97
75745;BME280;64359;51.366;-0.222;2022-11-02T01:31:11;101059.00;;;20.73;61.94
75745;BME280;64359;51.366;-0.222;2022-11-02T01:32:16;101058.03;;;20.72;61.93
75745;BME280;64359;51.366;-0.222;2022-11-02T01:33:20;101064.23;;;20.72;61.93
75745;BME280;64359;51.366;-0.222;2022-11-02T01:34:25;101066.55;;;20.72;61.93
75745;BME280;64359;51.366;-0.222;2022-11-02T01:35:29;101067.55;;;20.71;61.91
75745;BME280;64359;51.366;-0.222;2022-11-02T01:36:33;101072.70;;;20.70;61.94
75745;BME280;64359;51.366;-0.222;2022-11-02T01:37:38;101074.09;;;20.69;61.87
75745;BME280;64359;51.366;-0.222;2022-11-02T01:38:42;101075.17;;;20.69;61.92
75745;BME280;64359;51.366;-0.222;2022-11-02T01:39:47;101076.78;;;20.68;61.83
75745;BME280;64359;51.366;-0.222;2022-11-02T01:40:51;101081.76;;;20.67;61.85
75745;BME280;64359;51.366;-0.222;2022-11-02T01:41:55;101083.92;;;20.67;61.92
75745;BME280;64359;51.366;-0.222;2022-11-02T01:43:00;101086.66;;;20.67;61.92
75745;BME280;64359;51.366;-0.222;2022-11-02T01:45:23;101093.05;;;20.65;62.01
75745;BME280;64359;51.366;-0.222;2022-11-02T01:46:34;101095.70;;;20.64;61.96
75745;BME280;64359;51.366;-0.222;2022-11-02T01:47:42;101101.31;;;20.63;61.96
75745;BME280;64359;51.366;-0.222;2022-11-02T01:48:54;101098.71;;;20.63;61.98
75745;BME280;64359;51.366;-0.222;2022-11-02T01:50:03;101100.79;;;20.62;62.04
75745;BME280;64359;51.366;-0.222;2022-11-02T01:51:12;101102.01;;;20.61;62.01
75745;BME280;64359;51.366;-0.222;2022-11-02T01:52:21;101102.21;;;20.60;62.15
75745;BME280;64359;51.366;-0.222;2022-11-02T01:53:27;101108.09;;;20.61;62.36
75745;BME280;64359;51.366;-0.222;2022-11-02T01:54:35;101109.11;;;20.62;62.47
75745;BME280;64359;51.366;-0.222;2022-11-02T01:55:42;101113.88;;;20.63;62.57
75745;BME280;64359;51.366;-0.222;2022-11-02T01:56:50;101114.59;;;20.63;62.53
75745;BME280;64359;51.366;-0.222;2022-11-02T01:57:58;101116.54;;;20.63;62.54
75745;BME280;64359;51.366;-0.222;2022-11-02T01:59:07;101116.67;;;20.63;62.34
75745;BME280;64359;51.366;-0.222;2022-11-02T02:00:15;101122.30;;;20.63;62.30
75745;BME280;64359;51.366;-0.222;2022-11-02T02:01:20;101119.34;;;20.64;62.25
75745;BME280;64359;51.366;-0.222;2022-11-02T02:02:25;101119.79;;;20.63;62.17
75745;BME280;64359;51.366;-0.222;2022-11-02T02:05:16;101129.95;;;20.65;62.15
75745;BME280;64359;51.366;-0.222;2022-11-02T02:06:21;101130.32;;;20.62;62.11
75745;BME280;64359;51.366;-0.222;2022-11-02T02:07:29;101131.89;;;20.61;62.11
75745;BME280;64359;51.366;-0.222;2022-11-02T02:08:36;101137.15;;;20.61;62.06
75745;BME280;64359;51.366;-0.222;2022-11-02T02:09:41;101135.00;;;20.61;62.14
75745;BME280;64359;51.366;-0.222;2022-11-02T02:10:46;101133.81;;;20.60;62.13
75745;BME280;64359;51.366;-0.222;2022-11-02T02:11:50;101133.31;;;20.60;62.01
75745;BME280;64359;51.366;-0.222;2022-11-02T02:12:54;101135.86;;;20.60;62.00
75745;BME280;64359;51.366;-0.222;2022-11-02T02:14:01;101136.05;;;20.60;62.09
75745;BME280;64359;51.366;-0.222;2022-11-02T02:15:08;101140.28;;;20.59;62.04
75745;BME280;64359;51.366;-0.222;2022-11-02T02:16:17;101139.29;;;20.58;61.93
75745;BME280;64359;51.366;-0.222;2022-11-02T02:17:30;101139.25;;;20.57;62.06
75745;BME280;64359;51.366;-0.222;2022-11-02T02:18:41;101138.96;;;20.56;61.98
75745;BME280;64359;51.366;-0.222;2022-11-02T02:19:55;101142.10;;;20.56;61.97
75745;BME280;64359;51.366;-0.222;2022-11-02T02:21:11;101142.86;;;20.54;62.07
75745;BME280;64359;51.366;-0.222;2022-11-02T02:24:26;101151.94;;;20.51;62.14
75745;BME280;64359;51.366;-0.222;2022-11-02T02:25:55;101149.52;;;20.49;62.07
75745;BME280;64359;51.366;-0.222;2022-11-02T02:27:16;101152.77;;;20.47;62.04
75745;BME280;64359;51.366;-0.222;2022-11-02T02:28:29;101154.17;;;20.46;62.07
75745;BME280;64359;51.366;-0.222;2022-11-02T02:29:44;101158.81;;;20.45;62.25
75745;BME280;64359;51.366;-0.222;2022-11-02T02:30:56;101156.99;;;20.44;62.27
75745;BME280;64359;51.366;-0.222;2022-11-02T02:32:05;101161.30;;;20.42;62.15
75745;BME280;64359;51.366;-0.222;2022-11-02T02:33:16;101159.30;;;20.41;62.16
75745;BME280;64359;51.366;-0.222;2022-11-02T02:34:27;101163.71;;;20.40;62.21
75745;BME280;64359;51.366;-0.222;2022-11-02T02:35:41;101160.69;;;20.40;62.26
75745;BME280;64359;51.366;-0.222;2022-11-02T02:36:50;101164.77;;;20.39;62.23
75745;BME280;64359;51.366;-0.222;2022-11-02T02:37:54;101165.38;;;20.38;62.25
75745;BME280;64359;51.366;-0.222;2022-11-02T02:39:03;101172.14;;;20.37;62.31
75745;BME280;64359;51.366;-0.222;2022-11-02T02:40:12;101171.61;;;20.36;62.26
75745;BME280;64359;51.366;-0.222;2022-11-02T02:41:27;101170.66;;;20.35;62.30
75745;BME280;64359;51.366;-0.222;2022-11-02T02:42:35;101175.34;;;20.35;62.37
75745;BME280;64359;51.366;-0.222;2022-11-02T02:43:43;101175.81;;;20.35;62.67
75745;BME280;64359;51.366;-0.222;2022-11-02T02:44:58;101174.49;;;20.36;62.72
75745;BME280;64359;51.366;-0.222;2022-11-02T02:46:09;101178.27;;;20.37;62.97
75745;BME280;64359;51.366;-0.222;2022-11-02T02:47:19;101176.27;;;20.38;62.84
75745;BME280;64359;51.366;-0.222;2022-11-02T02:48:26;101172.39;;;20.35;62.81
75745;BME280;64359;51.366;-0.222;2022-11-02T02:49:36;101179.61;;;20.38;62.71
75745;BME280;64359;51.366;-0.222;2022-11-02T02:50:46;101182.30;;;20.39;62.65
75745;BME280;64359;51.366;-0.222;2022-11-02T02:51:50;101180.13;;;20.39;62.58
75745;BME280;64359;51.366;-0.222;2022-11-02T02:52:54;101183.27;;;20.38;62.58
75745;BME280;64359;51.366;-0.222;2022-11-02T02:54:03;101189.23;;;20.38;62.52
75745;BME280;64359;51.366;-0.222;2022-11-02T02:55:16;101189.43;;;20.38;62.38
75745;BME280;64359;51.366;-0.222;2022-11-02T02:56:24;101189.53;;;20.37;62.43
75745;BME280;64359;51.366;-0.222;2022-11-02T02:57:30;101191.13;;;20.37;62.43
75745;BME280;64359;51.366;-0.222;2022-11-02T02:58:41;101191.84;;;20.37;62.33
75745;BME280;64359;51.366;-0.222;2022-11-02T02:59:48;101189.58;;;20.37;62.41
75745;BME280;64359;51.366;-0.222;2022-11-02T03:00:53;101189.44;;;20.36;62.36
75745;BME280;64359;51.366;-0.222;2022-11-02T03:01:58;101195.73;;;20.36;62.24
75745;BME280;64359;51.366;-0.222;2022-11-02T03:03:04;101197.39;;;20.36;62.29
75745;BME280;64359;51.366;-0.222;2022-11-02T03:04:10;101192.27;;;20.32;62.22
75745;BME280;64359;51.366;-0.222;2022-11-02T03:05:26;101194.97;;;20.32;62.22
75745;BME280;64359;51.366;-0.222;2022-11-02T03:06:33;101205.88;;;20.34;62.27
75745;BME280;64359;51.366;-0.222;2022-11-02T03:07:39;101209.42;;;20.35;62.19
75745;BME280;64359;51.366;-0.222;2022-11-02T03:08:50;101211.84;;;20.34;62.21
75745;BME280;64359;51.366;-0.222;2022-11-02T03:10:09;101209.42;;;20.33;62.22
75745;BME280;64359;51.366;-0.222;2022-11-02T03:11:18;101215.90;;;20.33;62.18
75745;BME280;64359;51.366;-0.222;2022-11-02T03:12:32;101216.55;;;20.32;62.22
75745;BME280;64359;51.366;-0.222;2022-11-02T03:13:49;101223.86;;;20.31;62.29
75745;BME280;64359;51.366;-0.222;2022-11-02T03:15:06;101223.63;;;20.31;62.21
75745;BME280;64359;51.366;-0.222;2022-11-02T03:16:20;101217.31;;;20.26;62.20
75745;BME280;64359;51.366;-0.222;2022-11-02T03:17:37;101224.01;;;20.29;62.20
75745;BME280;64359;51.366;-0.222;2022-11-02T03:18:51;101225.88;;;20.28;62.28
75745;BME280;64359;51.366;-0.222;2022-11-02T03:20:01;101225.30;;;20.27;62.22
75745;BME280;64359;51.366;-0.222;2022-11-02T03:21:14;101228.41;;;20.26;62.28
75745;BME280;64359;51.366;-0.222;2022-11-02T03:22:31;101234.88;;;20.25;62.32
75745;BME280;64359;51.366;-0.222;2022-11-02T03:23:40;101236.09;;;20.25;62.41
75745;BME280;64359;51.366;-0.222;2022-11-02T03:24:51;101234.81;;;20.24;62.26
75745;BME280;64359;51.366;-0.222;2022-11-02T03:26:03;101235.33;;;20.22;62.37
75745;BME280;64359;51.366;-0.222;2022-11-02T03:27:14;101241.14;;;20.22;62.34
75745;BME280;64359;51.366;-0.222;2022-11-02T03:28:28;101237.16;;;20.17;62.32
75745;BME280;64359;51.366;-0.222;2022-11-02T03:29:41;101244.27;;;20.20;62.43
75745;BME280;64359;51.366;-0.222;2022-11-02T03:30:51;101247.44;;;20.21;62.51
75745;BME280;64359;51.366;-0.222;2022-11-02T03:32:01;101249.27;;;20.22;62.77
75745;BME280;64359;51.366;-0.222;2022-11-02T03:33:16;101248.58;;;20.23;62.80
75745;BME280;64359;51.366;-0.222;2022-11-02T03:34:27;101250.00;;;20.23;62.84
75745;BME280;64359;51.366;-0.222;2022-11-02T03:35:38;101242.13;;;20.21;62.81
75745;BME280;64359;51.366;-0.222;2022-11-02T03:36:48;101249.35;;;20.24;62.73
75745;BME280;64359;51.366;-0.222;2022-11-02T03:37:59;101245.73;;;20.24;62.73
75745;BME280;64359;51.366;-0.222;2022-11-02T03:39:05;101247.69;;;20.25;62.62
75745;BME280;64359;51.366;-0.222;2022-11-02T03:40:14;101247.62;;;20.23;62.60
75745;BME280;64359;51.366;-0.222;2022-11-02T03:41:23;101251.08;;;20.23;62.53
75745;BME280;64359;51.366;-0.222;2022-11-02T03:42:31;101244.39;;;20.19;62.61
75745;BME280;64359;51.366;-0.222;2022-11-02T03:43:37;101253.45;;;20.22;62.51
75745;BME280;64359;51.366;-0.222;2022-11-02T03:44:44;101255.59;;;20.22;62.53
75745;BME280;64359;51.366;-0.222;2022-11-02T03:45:52;101258.42;;;20.22;62.36
75745;BME280;64359;51.366;-0.222;2022-11-02T03:46:59;101257.00;;;20.22;62.40
75745;BME280;64359;51.366;-0.222;2022-11-02T03:48:07;101256.70;;;20.21;62.36
75745;BME280;64359;51.366;-0.222;2022-11-02T03:49:16;101257.95;;;20.21;62.40
75745;BME280;64359;51.366;-0.222;2022-11-02T03:50:22;101257.88;;;20.21;62.40
75745;BME280;64359;51.366;-0.222;2022-11-02T03:51:28;101253.02;;;20.17;62.39
75745;BME280;64359;51.366;-0.222;2022-11-02T03:52:36;101259.74;;;20.20;62.36
75745;BME280;64359;51.366;-0.222;2022-11-02T03:53:48;101256.58;;;20.16;62.35
75745;BME280;64359;51.366;-0.222;2022-11-02T03:55:02;101264.04;;;20.19;62.40
75745;BME280;64359;51.366;-0.222;2022-11-02T03:56:13;101255.00;;;20.11;62.48
75745;BME280;64359;51.366;-0.222;2022-11-02T03:57:20;101271.70;;;20.18;62.56
75745;BME280;64359;51.366;-0.222;2022-11-02T03:58:27;101275.79;;;20.17;62.53
75745;BME280;64359;51.366;-0.222;2022-11-02T03:59:32;101275.95;;;20.17;62.70
75745;BME280;64359;51.366;-0.222;2022-11-02T04:00:42;101278.45;;;20.17;62.77
75745;BME280;64359;51.366;-0.222;2022-11-02T04:01:49;101274.27;;;20.13;62.81
75745;BME280;64359;51.366;-0.222;2022-11-02T04:02:57;101282.72;;;20.18;62.90
75745;BME280;64359;51.366;-0.222;2022-11-02T04:04:04;101286.06;;;20.19;62.80
75745;BME280;64359;51.366;-0.222;2022-11-02T04:05:09;101289.07;;;20.19;62.81
75745;BME280;64359;51.366;-0.222;2022-11-02T04:06:14;101283.99;;;20.16;62.94
75745;BME280;64359;51.366;-0.222;2022-11-02T04:07:19;101286.36;;;20.18;63.00
75745;BME280;64359;51.366;-0.222;2022-11-02T04:08:31;101300.35;;;20.23;63.03
75745;BME280;64359;51.366;-0.222;2022-11-02T04:09:37;101301.60;;;20.25;63.05
75745;BME280;64359;51.366;-0.222;2022-11-02T04:10:42;101302.16;;;20.28;63.34
75745;BME280;64359;51.366;-0.222;2022-11-02T04:12:00;101298.54;;;20.31;63.44
75745;BME280;64359;51.366;-0.222;2022-11-02T04:13:22;101301.77;;;20.35;63.47
75745;BME280;64359;51.366;-0.222;2022-11-02T04:14:44;101302.88;;;20.38;63.47
75745;BME280;64359;51.366;-0.222;2022-11-02T04:15:50;101305.48;;;20.40;63.43
75745;BME280;64359;51.366;-0.222;2022-11-02T04:16:55;101304.75;;;20.42;63.40
75745;BME280;64359;51.366;-0.222;2022-11-02T04:18:13;101310.60;;;20.46;63.15
75745;BME280;64359;51.366;-0.222;2022-11-02T04:19:35;101311.00;;;20.49;63.06
75745;BME280;64359;51.366;-0.222;2022-11-02T04:20:40;101313.29;;;20.51;63.01
75745;BME280;64359;51.366;-0.222;2022-11-02T04:21:44;101315.81;;;20.54;62.96
75745;BME280;64359;51.366;-0.222;2022-11-02T04:23:02;101318.45;;;20.58;62.91
75745;BME280;64359;51.366;-0.222;2022-11-02T04:24:25;101321.84;;;20.62;62.85
75745;BME280;64359;51.366;-0.222;2022-11-02T04:25:53;101324.41;;;20.65;62.80
75745;BME280;64359;51.366;-0.222;2022-11-02T04:26:58;101325.51;;;20.68;62.73
75745;BME280;64359;51.366;-0.222;2022-11-02T04:28:08;101323.94;;;20.70;62.66
75745;BME280;64359;51.366;-0.222;2022-11-02T04:29:13;101326.37;;;20.73;62.73
75745;BME280;64359;51.366;-0.222;2022-11-02T04:30:19;101331.53;;;20.76;62.54
75745;BME280;64359;51.366;-0.222;2022-11-02T04:31:23;101334.42;;;20.79;62.53
75745;BME280;64359;51.366;-0.222;2022-11-02T04:32:28;101338.23;;;20.82;62.54
75745;BME280;64359;51.366;-0.222;2022-11-02T04:33:50;101336.12;;;20.85;62.48
75745;BME280;64359;51.366;-0.222;2022-11-02T04:34:55;101331.35;;;20.85;62.37
75745;BME280;64359;51.366;-0.222;2022-11-02T04:36:01;101342.42;;;20.92;62.30
75745;BME280;64359;51.366;-0.222;2022-11-02T04:37:05;101344.17;;;20.94;62.31
75745;BME280;64359;51.366;-0.222;2022-11-02T04:38:30;101343.13;;;20.97;62.18
75745;BME280;64359;51.366;-0.222;2022-11-02T04:39:44;101342.02;;;21.00;62.22
75745;BME280;64359;51.366;-0.222;2022-11-02T04:40:48;101345.36;;;21.02;62.15
75745;BME280;64359;51.366;-0.222;2022-11-02T04:42:14;101348.09;;;21.05;62.13
75745;BME280;64359;51.366;-0.222;2022-11-02T04:43:18;101350.00;;;21.08;62.06
75745;BME280;64359;51.366;-0.222;2022-11-02T04:44:23;101353.71;;;21.10;62.03
75745;BME280;64359;51.366;-0.222;2022-11-02T04:45:28;101352.20;;;21.14;62.00
75745;BME280;64359;51.366;-0.222;2022-11-02T04:46:34;101352.29;;;21.16;61.97
75745;BME280;64359;51.366;-0.222;2022-11-02T04:47:39;101351.22;;;21.19;61.90
75745;BME280;64359;51.366;-0.222;2022-11-02T04:48:44;101354.80;;;21.23;61.74
75745;BME280;64359;51.366;-0.222;2022-11-02T04:49:48;101356.00;;;21.25;61.83
75745;BME280;64359;51.366;-0.222;2022-11-02T04:50:54;101353.65;;;21.26;61.70
75745;BME280;64359;51.366;-0.222;2022-11-02T04:52:01;101354.77;;;21.29;61.60
75745;BME280;64359;51.366;-0.222;2022-11-02T04:53:06;101354.53;;;21.31;61.55
75745;BME280;64359;51.366;-0.222;2022-11-02T04:54:11;101356.41;;;21.34;61.65
75745;BME280;64359;51.366;-0.222;2022-11-02T04:55:15;101352.41;;;21.36;61.50
75745;BME280;64359;51.366;-0.222;2022-11-02T04:56:21;101348.64;;;21.34;61.50
75745;BME280;64359;51.366;-0.222;2022-11-02T04:57:25;101354.21;;;21.39;61.38
75745;BME280;64359;51.366;-0.222;2022-11-02T04:58:30;101353.72;;;21.41;61.40
75745;BME280;64359;51.366;-0.222;2022-11-02T04:59:34;101348.88;;;21.39;61.29
75745;BME280;64359;51.366;-0.222;2022-11-02T05:00:39;101354.71;;;21.45;61.28
75745;BME280;64359;51.366;-0.222;2022-11-02T05:01:45;101345.48;;;21.43;61.19
75745;BME280;64359;51.366;-0.222;2022-11-02T05:02:50;101355.54;;;21.49;61.19
75745;BME280;64359;51.366;-0.222;2022-11-02T05:03:56;101358.77;;;21.51;61.20
75745;BME280;64359;51.366;-0.222;2022-11-02T05:05:03;101361.90;;;21.54;61.23
75745;BME280;64359;51.366;-0.222;2022-11-02T05:06:09;101361.20;;;21.57;61.24
75745;BME280;64359;51.366;-0.222;2022-11-02T05:07:14;101360.55;;;21.59;61.27
75745;BME280;64359;51.366;-0.222;2022-11-02T05:08:19;101361.74;;;21.63;61.42
75745;BME280;64359;51.366;-0.222;2022-11-02T05:09:24;101365.52;;;21.66;61.41
75745;BME280;64359;51.366;-0.222;2022-11-02T05:10:28;101363.63;;;21.68;61.44
75745;BME280;64359;51.366;-0.222;2022-11-02T05:11:33;101369.03;;;21.71;61.35
75745;BME280;64359;51.366;-0.222;2022-11-02T05:12:37;101371.61;;;21.74;61.23
75745;BME280;64359;51.366;-0.222;2022-11-02T05:13:42;101371.67;;;21.76;61.12
75745;BME280;64359;51.366;-0.222;2022-11-02T05:14:47;101373.88;;;21.79;61.10
75745;BME280;64359;51.366;-0.222;2022-11-02T05:15:52;101371.13;;;21.81;60.92
75745;BME280;64359;51.366;-0.222;2022-11-02T05:16:59;101372.59;;;21.84;60.86
75745;BME280;64359;51.366;-0.222;2022-11-02T05:18:04;101374.42;;;21.87;60.64
75745;BME280;64359;51.366;-0.222;2022-11-02T05:19:09;101373.13;;;21.89;60.64
75745;BME280;64359;51.366;-0.222;2022-11-02T05:20:13;101377.68;;;21.91;60.47
75745;BME280;64359;51.366;-0.222;2022-11-02T05:21:18;101369.08;;;21.89;60.52
75745;BME280;64359;51.366;-0.222;2022-11-02T05:22:22;101379.58;;;21.95;60.42
75745;BME280;64359;51.366;-0.222;2022-11-02T05:23:27;101372.69;;;21.92;60.30
75745;BME280;64359;51.366;-0.222;2022-11-02T05:24:32;101383.83;;;21.97;60.24
75745;BME280;64359;51.366;-0.222;2022-11-02T05:25:36;101383.15;;;21.98;60.19
75745;BME280;64359;51.366;-0.222;2022-11-02T05:26:41;101386.02;;;22.00;60.16
75745;BME280;64359;51.366;-0.222;2022-11-02T05:27:46;101386.75;;;22.02;60.01
75745;BME280;64359;51.366;-0.222;2022-11-02T05:28:51;101385.29;;;22.04;59.96
75745;BME280;64359;51.366;-0.222;2022-11-02T05:29:55;101385.20;;;22.04;60.00
75745;BME280;64359;51.366;-0.222;2022-11-02T05:31:01;101383.66;;;22.05;59.91
75745;BME280;64359;51.366;-0.222;2022-11-02T05:32:05;101383.25;;;22.06;59.85
75745;BME280;64359;51.366;-0.222;2022-11-02T05:33:10;101382.73;;;22.08;59.85
75745;BME280;64359;51.366;-0.222;2022-11-02T05:34:14;101381.45;;;22.08;59.95
75745;BME280;64359;51.366;-0.222;2022-11-02T05:35:19;101383.03;;;22.08;59.76
75745;BME280;64359;51.366;-0.222;2022-11-02T05:36:27;101383.80;;;22.09;59.74
75745;BME280;64359;51.366;-0.222;2022-11-02T05:37:31;101376.73;;;22.06;59.80
75745;BME280;64359;51.366;-0.222;2022-11-02T05:38:36;101378.81;;;22.10;59.73
75745;BME280;64359;51.366;-0.222;2022-11-02T05:39:41;101374.07;;;22.09;59.69
75745;BME280;64359;51.366;-0.222;2022-11-02T05:40:51;101377.82;;;22.11;59.66
75745;BME280;64359;51.366;-0.222;2022-11-02T05:41:56;101377.58;;;22.11;59.67
75745;BME280;64359;51.366;-0.222;2022-11-02T05:43:02;101374.92;;;22.12;59.70
75745;BME280;64359;51.366;-0.222;2022-11-02T05:44:07;101378.31;;;22.13;59.58
75745;BME280;64359;51.366;-0.222;2022-11-02T05:45:12;101377.66;;;22.14;59.60
75745;BME280;64359;51.366;-0.222;2022-11-02T05:46:17;101376.08;;;22.15;59.53
75745;BME280;64359;51.366;-0.222;2022-11-02T05:47:21;101375.40;;;22.16;59.68
75745;BME280;64359;51.366;-0.222;2022-11-02T05:48:28;101370.64;;;22.16;59.57
75745;BME280;64359;51.366;-0.222;2022-11-02T05:49:33;101370.16;;;22.17;59.68
75745;BME280;64359;51.366;-0.222;2022-11-02T05:50:38;101375.81;;;22.18;59.50
75745;BME280;64359;51.366;-0.222;2022-11-02T05:51:43;101374.78;;;22.19;59.48
75745;BME280;64359;51.366;-0.222;2022-11-02T05:52:48;101375.18;;;22.20;59.55